sensor_id;sensor_type;location;lat;lon;timestamp;temperature;humidity
77056;SHT30;67471;44.918;8.614;2023-07-31T00:01:27;26.41;61.81
77056;SHT30;67471;44.918;8.614;2023-07-31T00:04:30;26.39;61.85
77056;SHT30;67471;44.918;8.614;2023-07-31T00:07:33;26.45;61.82
77056;SHT30;67471;44.918;8.614;2023-07-31T00:10:37;26.44;61.72
77056;SHT30;67471;44.918;8.614;2023-07-31T00:13:41;26.42;61.78
77056;SHT30;67471;44.918;8.614;2023-07-31T00:16:44;26.44;61.66
77056;SHT30;67471;44.918;8.614;2023-07-31T00:19:48;26.46;61.58
77056;SHT30;67471;44.918;8.614;2023-07-31T00:22:54;26.35;61.91
77056;SHT30;67471;44.918;8.614;2023-07-31T00:25:58;26.45;61.69
77056;SHT30;67471;44.918;8.614;2023-07-31T00:29:01;26.46;61.83
77056;SHT30;67471;44.918;8.614;2023-07-31T00:32:04;26.52;61.68
77056;SHT30;67471;44.918;8.614;2023-07-31T00:35:08;26.53;63.30
77056;SHT30;67471;44.918;8.614;2023-07-31T00:38:12;26.45;63.71
77056;SHT30;67471;44.918;8.614;2023-07-31T00:41:16;26.45;63.41
77056;SHT30;67471;44.918;8.614;2023-07-31T00:44:20;26.36;63.66
77056;SHT30;67471;44.918;8.614;2023-07-31T00:47:23;26.42;63.39
77056;SHT30;67471;44.918;8.614;2023-07-31T00:50:27;26.35;63.77
77056;SHT30;67471;44.918;8.614;2023-07-31T00:53:31;26.26;63.95
77056;SHT30;67471;44.918;8.614;2023-07-31T00:56:35;26.14;64.32
77056;SHT30;67471;44.918;8.614;2023-07-31T00:59:38;26.11;64.32
77056;SHT30;67471;44.918;8.614;2023-07-31T01:02:41;26.09;64.23
77056;SHT30;67471;44.918;8.614;2023-07-31T01:12:04;25.90;65.23
77056;SHT30;67471;44.918;8.614;2023-07-31T01:15:08;25.85;65.29
77056;SHT30;67471;44.918;8.614;2023-07-31T01:18:14;25.83;65.26
77056;SHT30;67471;44.918;8.614;2023-07-31T01:24:36;25.83;65.34
77056;SHT30;67471;44.918;8.614;2023-07-31T01:27:51;25.77;65.41
77056;SHT30;67471;44.918;8.614;2023-07-31T01:30:56;25.70;65.65
77056;SHT30;67471;44.918;8.614;2023-07-31T01:34:01;25.57;65.95
77056;SHT30;67471;44.918;8.614;2023-07-31T01:37:05;25.50;66.02
77056;SHT30;67471;44.918;8.614;2023-07-31T01:40:08;25.40;65.57
77056;SHT30;67471;44.918;8.614;2023-07-31T01:43:12;25.39;65.78
77056;SHT30;67471;44.918;8.614;2023-07-31T01:46:15;25.29;65.65
77056;SHT30;67471;44.918;8.614;2023-07-31T01:49:18;25.35;65.48
77056;SHT30;67471;44.918;8.614;2023-07-31T01:52:22;25.27;65.60
77056;SHT30;67471;44.918;8.614;2023-07-31T01:55:25;25.04;66.48
77056;SHT30;67471;44.918;8.614;2023-07-31T01:58:29;25.01;66.57
77056;SHT30;67471;44.918;8.614;2023-07-31T02:01:33;25.01;66.54
77056;SHT30;67471;44.918;8.614;2023-07-31T02:04:36;24.98;66.65
77056;SHT30;67471;44.918;8.614;2023-07-31T02:07:41;24.85;66.76
77056;SHT30;67471;44.918;8.614;2023-07-31T02:10:44;24.82;66.95
77056;SHT30;67471;44.918;8.614;2023-07-31T02:13:47;24.94;66.71
77056;SHT30;67471;44.918;8.614;2023-07-31T02:16:51;25.01;66.36
77056;SHT30;67471;44.918;8.614;2023-07-31T02:19:54;24.98;66.39
77056;SHT30;67471;44.918;8.614;2023-07-31T02:22:58;25.04;66.39
77056;SHT30;67471;44.918;8.614;2023-07-31T02:26:03;24.92;66.69
77056;SHT30;67471;44.918;8.614;2023-07-31T02:29:06;24.99;66.45
77056;SHT30;67471;44.918;8.614;2023-07-31T02:32:09;24.91;66.67
77056;SHT30;67471;44.918;8.614;2023-07-31T02:35:12;25.04;66.33
77056;SHT30;67471;44.918;8.614;2023-07-31T02:38:18;25.09;66.24
77056;SHT30;67471;44.918;8.614;2023-07-31T02:41:21;25.06;66.74
77056;SHT30;67471;44.918;8.614;2023-07-31T02:44:25;25.13;66.91
77056;SHT30;67471;44.918;8.614;2023-07-31T02:47:29;25.09;66.92
77056;SHT30;67471;44.918;8.614;2023-07-31T02:50:32;25.11;67.02
77056;SHT30;67471;44.918;8.614;2023-07-31T02:53:36;25.06;67.61
77056;SHT30;67471;44.918;8.614;2023-07-31T02:56:40;25.01;67.68
77056;SHT30;67471;44.918;8.614;2023-07-31T02:59:43;24.95;67.68
77056;SHT30;67471;44.918;8.614;2023-07-31T03:02:46;24.71;67.88
77056;SHT30;67471;44.918;8.614;2023-07-31T03:05:50;24.75;67.82
77056;SHT30;67471;44.918;8.614;2023-07-31T03:08:53;24.78;67.62
77056;SHT30;67471;44.918;8.614;2023-07-31T03:11:56;24.74;67.74
77056;SHT30;67471;44.918;8.614;2023-07-31T03:14:59;24.75;67.53
77056;SHT30;67471;44.918;8.614;2023-07-31T03:18:03;24.79;67.34
77056;SHT30;67471;44.918;8.614;2023-07-31T03:21:07;24.67;67.66
77056;SHT30;67471;44.918;8.614;2023-07-31T03:24:10;24.65;67.60
77056;SHT30;67471;44.918;8.614;2023-07-31T03:27:15;24.63;67.74
77056;SHT30;67471;44.918;8.614;2023-07-31T03:30:19;24.63;67.75
77056;SHT30;67471;44.918;8.614;2023-07-31T03:33:23;24.51;67.70
77056;SHT30;67471;44.918;8.614;2023-07-31T03:36:27;24.43;68.15
77056;SHT30;67471;44.918;8.614;2023-07-31T03:39:30;24.50;67.99
77056;SHT30;67471;44.918;8.614;2023-07-31T03:42:34;24.37;68.24
77056;SHT30;67471;44.918;8.614;2023-07-31T03:45:37;24.44;68.29
77056;SHT30;67471;44.918;8.614;2023-07-31T03:48:42;24.37;68.47
77056;SHT30;67471;44.918;8.614;2023-07-31T03:51:46;24.33;68.75
77056;SHT30;67471;44.918;8.614;2023-07-31T03:54:50;24.47;68.42
77056;SHT30;67471;44.918;8.614;2023-07-31T03:57:53;24.50;68.35
77056;SHT30;67471;44.918;8.614;2023-07-31T04:00:57;24.53;68.35
77056;SHT30;67471;44.918;8.614;2023-07-31T04:04:00;24.50;68.60
77056;SHT30;67471;44.918;8.614;2023-07-31T04:07:03;24.44;68.86
77056;SHT30;67471;44.918;8.614;2023-07-31T04:10:06;24.57;68.55
77056;SHT30;67471;44.918;8.614;2023-07-31T04:13:12;24.48;69.10
77056;SHT30;67471;44.918;8.614;2023-07-31T04:16:16;24.57;68.80
77056;SHT30;67471;44.918;8.614;2023-07-31T04:19:19;24.63;68.64
77056;SHT30;67471;44.918;8.614;2023-07-31T04:22:23;24.54;68.79
77056;SHT30;67471;44.918;8.614;2023-07-31T04:25:29;24.60;68.80
77056;SHT30;67471;44.918;8.614;2023-07-31T04:28:33;24.57;69.07
77056;SHT30;67471;44.918;8.614;2023-07-31T04:31:36;24.65;68.81
77056;SHT30;67471;44.918;8.614;2023-07-31T04:34:42;24.60;68.80
77056;SHT30;67471;44.918;8.614;2023-07-31T04:37:46;24.60;68.84
77056;SHT30;67471;44.918;8.614;2023-07-31T04:40:52;24.44;69.56
77056;SHT30;67471;44.918;8.614;2023-07-31T04:43:55;24.33;69.77
77056;SHT30;67471;44.918;8.614;2023-07-31T04:46:58;24.28;69.76
77056;SHT30;67471;44.918;8.614;2023-07-31T04:50:01;24.31;69.53
77056;SHT30;67471;44.918;8.614;2023-07-31T04:53:06;24.10;70.03
77056;SHT30;67471;44.918;8.614;2023-07-31T04:56:09;24.12;69.93
77056;SHT30;67471;44.918;8.614;2023-07-31T04:59:13;24.24;69.32
77056;SHT30;67471;44.918;8.614;2023-07-31T05:02:16;24.17;69.47
77056;SHT30;67471;44.918;8.614;2023-07-31T05:05:20;24.18;69.39
77056;SHT30;67471;44.918;8.614;2023-07-31T05:08:23;24.30;69.09
77056;SHT30;67471;44.918;8.614;2023-07-31T05:11:27;24.28;68.91
77056;SHT30;67471;44.918;8.614;2023-07-31T05:14:30;24.40;68.75
77056;SHT30;67471;44.918;8.614;2023-07-31T05:17:34;24.53;68.45
77056;SHT30;67471;44.918;8.614;2023-07-31T05:20:37;24.58;68.24
77056;SHT30;67471;44.918;8.614;2023-07-31T05:23:40;24.64;68.22
77056;SHT30;67471;44.918;8.614;2023-07-31T05:26:43;24.78;67.77
77056;SHT30;67471;44.918;8.614;2023-07-31T05:29:46;24.86;67.66
77056;SHT30;67471;44.918;8.614;2023-07-31T05:32:50;24.99;67.48
77056;SHT30;67471;44.918;8.614;2023-07-31T05:35:53;25.05;67.83
77056;SHT30;67471;44.918;8.614;2023-07-31T05:38:56;25.15;68.03
77056;SHT30;67471;44.918;8.614;2023-07-31T05:42:00;25.26;67.85
77056;SHT30;67471;44.918;8.614;2023-07-31T05:45:03;25.39;67.87
77056;SHT30;67471;44.918;8.614;2023-07-31T05:48:07;25.54;67.95
77056;SHT30;67471;44.918;8.614;2023-07-31T05:51:10;25.53;68.46
77056;SHT30;67471;44.918;8.614;2023-07-31T05:54:14;25.71;68.03
77056;SHT30;67471;44.918;8.614;2023-07-31T05:57:17;25.80;68.06
77056;SHT30;67471;44.918;8.614;2023-07-31T06:00:20;25.85;68.27
77056;SHT30;67471;44.918;8.614;2023-07-31T06:03:24;25.94;68.55
77056;SHT30;67471;44.918;8.614;2023-07-31T06:06:28;25.95;68.28
77056;SHT30;67471;44.918;8.614;2023-07-31T06:09:31;26.06;68.37
77056;SHT30;67471;44.918;8.614;2023-07-31T06:12:35;26.08;68.23
77056;SHT30;67471;44.918;8.614;2023-07-31T06:15:39;26.18;68.06
77056;SHT30;67471;44.918;8.614;2023-07-31T06:18:42;26.28;67.92
77056;SHT30;67471;44.918;8.614;2023-07-31T06:21:46;26.42;67.81
77056;SHT30;67471;44.918;8.614;2023-07-31T06:24:49;26.60;67.79
77056;SHT30;67471;44.918;8.614;2023-07-31T06:27:53;26.73;67.42
77056;SHT30;67471;44.918;8.614;2023-07-31T06:30:56;27.02;66.47
77056;SHT30;67471;44.918;8.614;2023-07-31T06:33:59;27.37;65.63
77056;SHT30;67471;44.918;8.614;2023-07-31T06:37:03;27.68;65.04
77056;SHT30;67471;44.918;8.614;2023-07-31T06:40:07;27.77;64.87
77056;SHT30;67471;44.918;8.614;2023-07-31T06:43:11;27.89;64.70
77056;SHT30;67471;44.918;8.614;2023-07-31T06:46:15;27.91;64.62
77056;SHT30;67471;44.918;8.614;2023-07-31T06:49:18;27.92;64.66
77056;SHT30;67471;44.918;8.614;2023-07-31T06:52:21;28.06;64.60
77056;SHT30;67471;44.918;8.614;2023-07-31T06:55:25;27.98;64.94
77056;SHT30;67471;44.918;8.614;2023-07-31T06:58:28;27.92;65.20
77056;SHT30;67471;44.918;8.614;2023-07-31T07:01:32;27.86;65.36
77056;SHT30;67471;44.918;8.614;2023-07-31T07:04:35;28.05;64.97
77056;SHT30;67471;44.918;8.614;2023-07-31T07:07:38;28.16;64.52
77056;SHT30;67471;44.918;8.614;2023-07-31T07:10:42;28.39;63.88
77056;SHT30;67471;44.918;8.614;2023-07-31T07:13:46;28.44;63.76
77056;SHT30;67471;44.918;8.614;2023-07-31T07:16:52;28.87;62.89
77056;SHT30;67471;44.918;8.614;2023-07-31T07:19:56;29.41;61.03
77056;SHT30;67471;44.918;8.614;2023-07-31T07:23:00;29.41;60.80
77056;SHT30;67471;44.918;8.614;2023-07-31T07:26:03;29.52;60.66
77056;SHT30;67471;44.918;8.614;2023-07-31T07:29:07;29.72;60.25
77056;SHT30;67471;44.918;8.614;2023-07-31T07:32:11;29.80;59.65
77056;SHT30;67471;44.918;8.614;2023-07-31T07:35:15;29.60;60.20
77056;SHT30;67471;44.918;8.614;2023-07-31T07:38:18;29.42;60.59
77056;SHT30;67471;44.918;8.614;2023-07-31T07:41:22;29.29;61.05
77056;SHT30;67471;44.918;8.614;2023-07-31T07:44:25;29.05;61.56
77056;SHT30;67471;44.918;8.614;2023-07-31T07:47:30;28.97;62.03
77056;SHT30;67471;44.918;8.614;2023-07-31T07:50:33;28.95;62.15
77056;SHT30;67471;44.918;8.614;2023-07-31T07:53:37;28.94;62.07
77056;SHT30;67471;44.918;8.614;2023-07-31T07:56:40;28.74;62.58
77056;SHT30;67471;44.918;8.614;2023-07-31T07:59:43;28.81;62.66
77056;SHT30;67471;44.918;8.614;2023-07-31T08:02:47;28.84;62.53
77056;SHT30;67471;44.918;8.614;2023-07-31T08:05:50;28.86;62.56
77056;SHT30;67471;44.918;8.614;2023-07-31T08:08:53;28.90;62.43
77056;SHT30;67471;44.918;8.614;2023-07-31T08:11:57;28.78;62.43
77056;SHT30;67471;44.918;8.614;2023-07-31T08:15:05;28.59;63.02
77056;SHT30;67471;44.918;8.614;2023-07-31T08:18:09;28.54;63.08
77056;SHT30;67471;44.918;8.614;2023-07-31T08:21:13;28.46;63.47
77056;SHT30;67471;44.918;8.614;2023-07-31T08:24:16;28.40;63.49
77056;SHT30;67471;44.918;8.614;2023-07-31T08:27:20;28.40;63.55
77056;SHT30;67471;44.918;8.614;2023-07-31T08:30:24;28.53;63.31
77056;SHT30;67471;44.918;8.614;2023-07-31T08:33:28;28.60;63.30
77056;SHT30;67471;44.918;8.614;2023-07-31T08:36:31;28.75;63.09
77056;SHT30;67471;44.918;8.614;2023-07-31T08:39:34;28.91;62.65
77056;SHT30;67471;44.918;8.614;2023-07-31T08:42:48;28.95;62.47
77056;SHT30;67471;44.918;8.614;2023-07-31T08:45:52;28.98;62.60
77056;SHT30;67471;44.918;8.614;2023-07-31T08:48:55;29.08;62.48
77056;SHT30;67471;44.918;8.614;2023-07-31T08:51:59;29.15;62.21
77056;SHT30;67471;44.918;8.614;2023-07-31T08:55:04;29.25;61.91
77056;SHT30;67471;44.918;8.614;2023-07-31T08:58:07;29.36;61.61
77056;SHT30;67471;44.918;8.614;2023-07-31T09:01:11;29.39;61.53
77056;SHT30;67471;44.918;8.614;2023-07-31T09:04:14;29.16;62.24
77056;SHT30;67471;44.918;8.614;2023-07-31T09:07:19;29.31;61.97
77056;SHT30;67471;44.918;8.614;2023-07-31T09:10:23;29.46;61.38
77056;SHT30;67471;44.918;8.614;2023-07-31T09:13:28;29.51;61.13
77056;SHT30;67471;44.918;8.614;2023-07-31T09:16:31;29.62;61.12
77056;SHT30;67471;44.918;8.614;2023-07-31T09:19:36;29.59;61.15
77056;SHT30;67471;44.918;8.614;2023-07-31T09:22:43;29.86;60.51
77056;SHT30;67471;44.918;8.614;2023-07-31T09:25:47;30.06;60.06
77056;SHT30;67471;44.918;8.614;2023-07-31T09:28:50;30.27;59.41
77056;SHT30;67471;44.918;8.614;2023-07-31T09:31:55;30.38;58.95
77056;SHT30;67471;44.918;8.614;2023-07-31T09:34:59;30.42;58.89
77056;SHT30;67471;44.918;8.614;2023-07-31T09:38:06;30.47;58.73
77056;SHT30;67471;44.918;8.614;2023-07-31T09:41:09;30.58;58.46
77056;SHT30;67471;44.918;8.614;2023-07-31T09:44:14;30.62;58.33
77056;SHT30;67471;44.918;8.614;2023-07-31T09:47:23;30.76;57.77
77056;SHT30;67471;44.918;8.614;2023-07-31T09:50:29;30.95;57.45
77056;SHT30;67471;44.918;8.614;2023-07-31T09:53:34;31.30;56.47
77056;SHT30;67471;44.918;8.614;2023-07-31T09:56:44;31.67;55.63
77056;SHT30;67471;44.918;8.614;2023-07-31T09:59:50;32.35;53.63
77056;SHT30;67471;44.918;8.614;2023-07-31T10:02:54;32.36;53.55
77056;SHT30;67471;44.918;8.614;2023-07-31T10:06:01;32.72;53.09
77056;SHT30;67471;44.918;8.614;2023-07-31T10:09:06;33.04;51.81
77056;SHT30;67471;44.918;8.614;2023-07-31T10:12:10;33.48;51.04
77056;SHT30;67471;44.918;8.614;2023-07-31T10:15:15;33.59;50.53
77056;SHT30;67471;44.918;8.614;2023-07-31T10:18:19;33.76;50.26
77056;SHT30;67471;44.918;8.614;2023-07-31T10:21:23;33.28;51.10
77056;SHT30;67471;44.918;8.614;2023-07-31T10:24:26;32.95;52.33
77056;SHT30;67471;44.918;8.614;2023-07-31T10:27:30;33.30;51.47
77056;SHT30;67471;44.918;8.614;2023-07-31T10:30:33;33.35;51.11
77056;SHT30;67471;44.918;8.614;2023-07-31T10:33:38;33.35;51.13
77056;SHT30;67471;44.918;8.614;2023-07-31T10:36:42;33.41;50.71
77056;SHT30;67471;44.918;8.614;2023-07-31T10:39:45;33.74;49.78
77056;SHT30;67471;44.918;8.614;2023-07-31T10:42:58;34.13;48.92
77056;SHT30;67471;44.918;8.614;2023-07-31T10:46:01;34.10;49.31
77056;SHT30;67471;44.918;8.614;2023-07-31T10:49:09;34.29;48.89
77056;SHT30;67471;44.918;8.614;2023-07-31T10:52:12;34.40;48.95
77056;SHT30;67471;44.918;8.614;2023-07-31T10:55:26;34.23;49.10
77056;SHT30;67471;44.918;8.614;2023-07-31T10:58:33;33.99;49.56
77056;SHT30;67471;44.918;8.614;2023-07-31T11:01:55;34.12;49.47
77056;SHT30;67471;44.918;8.614;2023-07-31T11:05:08;34.35;48.83
77056;SHT30;67471;44.918;8.614;2023-07-31T11:08:12;34.43;48.49
77056;SHT30;67471;44.918;8.614;2023-07-31T11:11:17;34.09;49.25
77056;SHT30;67471;44.918;8.614;2023-07-31T11:14:21;34.23;49.27
77056;SHT30;67471;44.918;8.614;2023-07-31T11:17:25;34.46;48.67
77056;SHT30;67471;44.918;8.614;2023-07-31T11:20:29;34.47;48.73
77056;SHT30;67471;44.918;8.614;2023-07-31T11:23:33;34.68;48.33
77056;SHT30;67471;44.918;8.614;2023-07-31T11:26:36;34.91;48.06
77056;SHT30;67471;44.918;8.614;2023-07-31T11:29:40;34.86;47.89
77056;SHT30;67471;44.918;8.614;2023-07-31T11:32:44;34.32;48.74
77056;SHT30;67471;44.918;8.614;2023-07-31T11:35:48;33.47;50.59
77056;SHT30;67471;44.918;8.614;2023-07-31T11:38:52;33.58;50.70
77056;SHT30;67471;44.918;8.614;2023-07-31T11:41:59;33.88;50.21
77056;SHT30;67471;44.918;8.614;2023-07-31T11:45:04;33.71;50.59
77056;SHT30;67471;44.918;8.614;2023-07-31T11:48:07;33.89;50.24
77056;SHT30;67471;44.918;8.614;2023-07-31T11:51:10;34.20;49.43
77056;SHT30;67471;44.918;8.614;2023-07-31T11:54:15;34.17;49.18
77056;SHT30;67471;44.918;8.614;2023-07-31T11:57:19;34.13;49.32
77056;SHT30;67471;44.918;8.614;2023-07-31T12:00:23;34.12;49.45
77056;SHT30;67471;44.918;8.614;2023-07-31T12:03:26;34.08;49.30
77056;SHT30;67471;44.918;8.614;2023-07-31T12:06:36;34.04;49.40
77056;SHT30;67471;44.918;8.614;2023-07-31T12:09:55;33.96;48.99
77056;SHT30;67471;44.918;8.614;2023-07-31T12:13:06;33.98;48.97
77056;SHT30;67471;44.918;8.614;2023-07-31T12:16:09;33.67;48.86
77056;SHT30;67471;44.918;8.614;2023-07-31T12:19:12;33.41;49.42
77056;SHT30;67471;44.918;8.614;2023-07-31T12:22:16;33.18;50.05
77056;SHT30;67471;44.918;8.614;2023-07-31T12:25:19;33.16;50.23
77056;SHT30;67471;44.918;8.614;2023-07-31T12:28:26;33.33;49.54
77056;SHT30;67471;44.918;8.614;2023-07-31T12:31:30;33.78;48.84
77056;SHT30;67471;44.918;8.614;2023-07-31T12:34:42;34.04;47.94
77056;SHT30;67471;44.918;8.614;2023-07-31T12:37:45;33.81;46.82
77056;SHT30;67471;44.918;8.614;2023-07-31T12:40:48;33.79;46.89
77056;SHT30;67471;44.918;8.614;2023-07-31T12:43:51;34.04;46.62
77056;SHT30;67471;44.918;8.614;2023-07-31T12:46:54;34.17;46.61
77056;SHT30;67471;44.918;8.614;2023-07-31T12:49:58;34.12;45.92
77056;SHT30;67471;44.918;8.614;2023-07-31T12:53:01;33.86;46.06
77056;SHT30;67471;44.918;8.614;2023-07-31T12:56:04;33.62;45.62
77056;SHT30;67471;44.918;8.614;2023-07-31T12:59:07;33.61;46.09
77056;SHT30;67471;44.918;8.614;2023-07-31T13:02:11;33.76;46.29
77056;SHT30;67471;44.918;8.614;2023-07-31T13:05:14;33.88;46.57
77056;SHT30;67471;44.918;8.614;2023-07-31T13:08:18;34.01;46.31
77056;SHT30;67471;44.918;8.614;2023-07-31T13:11:22;34.22;45.67
77056;SHT30;67471;44.918;8.614;2023-07-31T13:14:25;34.53;45.03
77056;SHT30;67471;44.918;8.614;2023-07-31T13:17:28;34.39;44.46
77056;SHT30;67471;44.918;8.614;2023-07-31T13:20:32;34.15;44.96
77056;SHT30;67471;44.918;8.614;2023-07-31T13:23:35;34.05;44.75
77056;SHT30;67471;44.918;8.614;2023-07-31T13:26:38;34.09;44.55
77056;SHT30;67471;44.918;8.614;2023-07-31T13:29:42;34.20;44.25
77056;SHT30;67471;44.918;8.614;2023-07-31T13:32:45;34.04;43.76
77056;SHT30;67471;44.918;8.614;2023-07-31T13:35:49;34.13;43.44
77056;SHT30;67471;44.918;8.614;2023-07-31T13:38:53;34.49;42.32
77056;SHT30;67471;44.918;8.614;2023-07-31T13:41:56;34.76;42.35
77056;SHT30;67471;44.918;8.614;2023-07-31T13:44:59;34.74;42.27
77056;SHT30;67471;44.918;8.614;2023-07-31T13:48:03;34.61;41.81
77056;SHT30;67471;44.918;8.614;2023-07-31T13:51:07;34.61;41.50
77056;SHT30;67471;44.918;8.614;2023-07-31T13:54:10;34.53;41.72
77056;SHT30;67471;44.918;8.614;2023-07-31T13:57:14;34.15;42.87
77056;SHT30;67471;44.918;8.614;2023-07-31T14:00:18;34.19;42.64
77056;SHT30;67471;44.918;8.614;2023-07-31T14:03:21;34.32;42.98
77056;SHT30;67471;44.918;8.614;2023-07-31T14:06:24;34.52;42.82
77056;SHT30;67471;44.918;8.614;2023-07-31T14:09:28;34.60;42.78
77056;SHT30;67471;44.918;8.614;2023-07-31T14:12:32;34.88;43.09
77056;SHT30;67471;44.918;8.614;2023-07-31T14:15:36;35.17;43.19
77056;SHT30;67471;44.918;8.614;2023-07-31T14:18:40;35.35;43.01
77056;SHT30;67471;44.918;8.614;2023-07-31T14:21:43;35.08;43.38
77056;SHT30;67471;44.918;8.614;2023-07-31T14:24:46;34.87;43.76
77056;SHT30;67471;44.918;8.614;2023-07-31T14:27:49;34.70;44.69
77056;SHT30;67471;44.918;8.614;2023-07-31T14:30:53;34.71;44.79
77056;SHT30;67471;44.918;8.614;2023-07-31T14:33:57;34.95;44.52
77056;SHT30;67471;44.918;8.614;2023-07-31T14:37:01;35.15;44.01
77056;SHT30;67471;44.918;8.614;2023-07-31T14:40:05;35.08;43.64
77056;SHT30;67471;44.918;8.614;2023-07-31T14:43:09;34.84;42.39
77056;SHT30;67471;44.918;8.614;2023-07-31T14:46:12;34.53;44.21
77056;SHT30;67471;44.918;8.614;2023-07-31T14:49:15;34.31;44.79
77056;SHT30;67471;44.918;8.614;2023-07-31T14:52:19;34.45;44.91
77056;SHT30;67471;44.918;8.614;2023-07-31T14:55:22;34.60;44.46
77056;SHT30;67471;44.918;8.614;2023-07-31T14:58:25;34.68;43.45
77056;SHT30;67471;44.918;8.614;2023-07-31T15:01:29;34.59;43.46
77056;SHT30;67471;44.918;8.614;2023-07-31T15:04:32;34.35;43.95
77056;SHT30;67471;44.918;8.614;2023-07-31T15:07:36;34.50;44.72
77056;SHT30;67471;44.918;8.614;2023-07-31T15:10:39;34.54;45.14
77056;SHT30;67471;44.918;8.614;2023-07-31T15:13:43;34.45;45.06
77056;SHT30;67471;44.918;8.614;2023-07-31T15:16:47;34.35;44.87
77056;SHT30;67471;44.918;8.614;2023-07-31T15:19:51;34.22;45.12
77056;SHT30;67471;44.918;8.614;2023-07-31T15:22:55;33.95;45.87
77056;SHT30;67471;44.918;8.614;2023-07-31T15:25:58;33.98;45.68
77056;SHT30;67471;44.918;8.614;2023-07-31T15:29:03;33.98;45.79
77056;SHT30;67471;44.918;8.614;2023-07-31T15:32:14;33.85;45.91
77056;SHT30;67471;44.918;8.614;2023-07-31T15:35:18;33.76;45.77
77056;SHT30;67471;44.918;8.614;2023-07-31T15:38:21;33.50;45.70
77056;SHT30;67471;44.918;8.614;2023-07-31T15:41:25;33.51;46.04
77056;SHT30;67471;44.918;8.614;2023-07-31T15:44:28;33.65;46.01
77056;SHT30;67471;44.918;8.614;2023-07-31T15:47:32;33.84;46.27
77056;SHT30;67471;44.918;8.614;2023-07-31T15:50:36;33.84;45.99
77056;SHT30;67471;44.918;8.614;2023-07-31T15:53:39;33.96;46.24
77056;SHT30;67471;44.918;8.614;2023-07-31T15:56:43;33.84;46.56
77056;SHT30;67471;44.918;8.614;2023-07-31T15:59:46;33.91;46.50
77056;SHT30;67471;44.918;8.614;2023-07-31T16:02:49;34.02;46.35
77056;SHT30;67471;44.918;8.614;2023-07-31T16:05:53;34.20;46.05
77056;SHT30;67471;44.918;8.614;2023-07-31T16:08:56;34.12;45.97
77056;SHT30;67471;44.918;8.614;2023-07-31T16:12:00;34.01;46.53
77056;SHT30;67471;44.918;8.614;2023-07-31T16:15:04;34.02;46.80
77056;SHT30;67471;44.918;8.614;2023-07-31T16:18:11;33.89;46.96
77056;SHT30;67471;44.918;8.614;2023-07-31T16:21:15;33.68;46.73
77056;SHT30;67471;44.918;8.614;2023-07-31T16:24:18;33.55;47.39
77056;SHT30;67471;44.918;8.614;2023-07-31T16:27:21;33.58;47.58
77056;SHT30;67471;44.918;8.614;2023-07-31T16:30:27;33.59;47.60
77056;SHT30;67471;44.918;8.614;2023-07-31T16:33:30;33.59;47.57
77056;SHT30;67471;44.918;8.614;2023-07-31T16:36:35;33.65;46.84
77056;SHT30;67471;44.918;8.614;2023-07-31T16:39:39;33.40;47.17
77056;SHT30;67471;44.918;8.614;2023-07-31T16:42:44;33.24;47.87
77056;SHT30;67471;44.918;8.614;2023-07-31T16:45:47;33.26;47.79
77056;SHT30;67471;44.918;8.614;2023-07-31T16:48:54;33.23;47.79
77056;SHT30;67471;44.918;8.614;2023-07-31T16:51:57;33.18;47.79
77056;SHT30;67471;44.918;8.614;2023-07-31T16:55:01;33.33;47.75
77056;SHT30;67471;44.918;8.614;2023-07-31T16:58:05;33.31;47.84
77056;SHT30;67471;44.918;8.614;2023-07-31T17:01:08;33.31;47.57
77056;SHT30;67471;44.918;8.614;2023-07-31T17:04:11;33.26;48.02
77056;SHT30;67471;44.918;8.614;2023-07-31T17:07:15;33.20;48.63
77056;SHT30;67471;44.918;8.614;2023-07-31T17:10:19;33.14;48.69
77056;SHT30;67471;44.918;8.614;2023-07-31T17:13:22;33.10;48.80
77056;SHT30;67471;44.918;8.614;2023-07-31T17:16:25;33.16;47.95
77056;SHT30;67471;44.918;8.614;2023-07-31T17:19:32;33.06;48.10
77056;SHT30;67471;44.918;8.614;2023-07-31T17:22:35;33.04;48.17
77056;SHT30;67471;44.918;8.614;2023-07-31T17:25:38;32.96;48.53
77056;SHT30;67471;44.918;8.614;2023-07-31T17:28:41;32.82;48.80
77056;SHT30;67471;44.918;8.614;2023-07-31T17:31:45;32.68;48.99
77056;SHT30;67471;44.918;8.614;2023-07-31T17:34:48;32.65;48.92
77056;SHT30;67471;44.918;8.614;2023-07-31T17:37:52;32.66;49.00
77056;SHT30;67471;44.918;8.614;2023-07-31T17:40:55;32.68;49.25
77056;SHT30;67471;44.918;8.614;2023-07-31T17:43:59;32.72;49.44
77056;SHT30;67471;44.918;8.614;2023-07-31T17:47:02;32.70;49.73
77056;SHT30;67471;44.918;8.614;2023-07-31T17:50:06;32.65;49.98
77056;SHT30;67471;44.918;8.614;2023-07-31T17:53:10;32.59;50.16
77056;SHT30;67471;44.918;8.614;2023-07-31T17:56:14;32.58;50.44
77056;SHT30;67471;44.918;8.614;2023-07-31T17:59:17;32.45;50.35
77056;SHT30;67471;44.918;8.614;2023-07-31T18:02:20;32.35;50.57
77056;SHT30;67471;44.918;8.614;2023-07-31T18:05:24;32.31;50.43
77056;SHT30;67471;44.918;8.614;2023-07-31T18:08:27;32.25;50.58
77056;SHT30;67471;44.918;8.614;2023-07-31T18:11:31;32.25;50.56
77056;SHT30;67471;44.918;8.614;2023-07-31T18:14:35;32.21;50.73
77056;SHT30;67471;44.918;8.614;2023-07-31T18:17:41;32.09;50.95
77056;SHT30;67471;44.918;8.614;2023-07-31T18:20:44;32.02;51.04
77056;SHT30;67471;44.918;8.614;2023-07-31T18:23:48;32.00;51.18
77056;SHT30;67471;44.918;8.614;2023-07-31T18:26:52;31.87;51.40
77056;SHT30;67471;44.918;8.614;2023-07-31T18:29:55;31.84;51.59
77056;SHT30;67471;44.918;8.614;2023-07-31T18:32:58;31.71;51.93
77056;SHT30;67471;44.918;8.614;2023-07-31T18:36:02;31.51;52.42
77056;SHT30;67471;44.918;8.614;2023-07-31T18:39:06;31.40;52.60
77056;SHT30;67471;44.918;8.614;2023-07-31T18:42:09;31.34;50.97
77056;SHT30;67471;44.918;8.614;2023-07-31T18:45:13;31.27;49.89
77056;SHT30;67471;44.918;8.614;2023-07-31T18:48:16;31.27;46.18
77056;SHT30;67471;44.918;8.614;2023-07-31T18:51:19;31.22;44.03
77056;SHT30;67471;44.918;8.614;2023-07-31T18:54:23;31.12;42.98
77056;SHT30;67471;44.918;8.614;2023-07-31T18:57:26;31.03;42.70
77056;SHT30;67471;44.918;8.614;2023-07-31T19:00:30;30.95;43.40
77056;SHT30;67471;44.918;8.614;2023-07-31T19:03:34;30.69;44.34
77056;SHT30;67471;44.918;8.614;2023-07-31T19:06:37;30.62;44.98
77056;SHT30;67471;44.918;8.614;2023-07-31T19:09:42;30.52;45.33
77056;SHT30;67471;44.918;8.614;2023-07-31T19:12:45;30.38;45.87
77056;SHT30;67471;44.918;8.614;2023-07-31T19:15:49;30.38;45.85
77056;SHT30;67471;44.918;8.614;2023-07-31T19:18:53;30.27;46.68
77056;SHT30;67471;44.918;8.614;2023-07-31T19:21:56;30.20;47.11
77056;SHT30;67471;44.918;8.614;2023-07-31T19:25:00;30.07;47.63
77056;SHT30;67471;44.918;8.614;2023-07-31T19:28:03;29.97;47.54
77056;SHT30;67471;44.918;8.614;2023-07-31T19:31:07;29.96;47.39